createdAt,value
2023-05-31T00:01:34.271Z,101447.41
2023-05-31T00:04:01.187Z,101442.03
2023-05-31T00:06:28.136Z,101441.69
2023-05-31T00:08:55.142Z,101434.22
2023-05-31T00:11:21.945Z,101444.63
2023-05-31T00:13:48.624Z,101438.06
2023-05-31T00:16:37.995Z,101445.94
2023-05-31T00:19:02.473Z,101444.16
2023-05-31T00:21:31.742Z,101445.13
2023-05-31T00:23:58.804Z,101446.81
2023-05-31T00:26:26.312Z,101444.63
2023-05-31T00:28:53.008Z,101443.56
2023-05-31T00:31:20.084Z,101447.50
2023-05-31T00:33:46.837Z,101442.59
2023-05-31T00:36:13.883Z,101441.41
2023-05-31T00:38:41.782Z,101442.59
2023-05-31T00:41:11.116Z,101441.50
2023-05-31T00:43:38.043Z,101441.31
2023-05-31T00:46:05.737Z,101445.59
2023-05-31T00:48:32.635Z,101437.75
2023-05-31T00:50:59.506Z,101448.00
2023-05-31T00:53:28.489Z,101445.63
2023-05-31T00:55:55.234Z,101442.75
2023-05-31T00:58:26.052Z,101444.78
2023-05-31T01:00:53.409Z,101448.72
2023-05-31T01:03:22.000Z,101448.00
2023-05-31T01:05:49.993Z,101445.84
2023-05-31T01:08:18.196Z,101450.84
2023-05-31T01:10:45.451Z,101457.28
2023-05-31T01:13:22.732Z,101450.97
2023-05-31T01:15:58.791Z,101451.81
2023-05-31T01:18:33.674Z,101456.09
2023-05-31T01:21:04.824Z,101444.41
2023-05-31T01:24:02.154Z,101447.25
2023-05-31T01:26:34.122Z,101445.13
2023-05-31T01:29:09.713Z,101445.84
2023-05-31T01:31:39.025Z,101458.00
2023-05-31T01:34:07.192Z,101454.81
2023-05-31T01:36:33.850Z,101443.22
2023-05-31T01:39:03.327Z,101445.50
2023-05-31T01:41:39.585Z,101439.53
2023-05-31T01:44:07.414Z,101438.44
2023-05-31T01:46:34.699Z,101446.28
2023-05-31T01:49:03.087Z,101446.72
2023-05-31T01:51:34.909Z,101446.09
2023-05-31T01:54:08.773Z,101443.59
2023-05-31T01:56:38.335Z,101448.47
2023-05-31T01:59:07.551Z,101450.97
2023-05-31T02:01:36.068Z,101447.00
2023-05-31T02:04:03.175Z,101442.88
2023-05-31T02:06:32.699Z,101442.75
2023-05-31T02:09:01.147Z,101445.94
2023-05-31T02:11:28.173Z,101448.06
2023-05-31T02:13:54.884Z,101448.56
2023-05-31T02:16:21.753Z,101440.19
2023-05-31T02:18:49.786Z,101451.53
2023-05-31T02:21:16.870Z,101445.38
2023-05-31T02:23:44.055Z,101445.25
2023-05-31T02:26:12.148Z,101447.63
2023-05-31T02:28:41.307Z,101449.97
2023-05-31T02:31:08.259Z,101453.94
2023-05-31T02:33:34.995Z,101446.34
2023-05-31T02:36:02.980Z,101451.84
2023-05-31T02:38:30.519Z,101457.56
2023-05-31T02:40:57.249Z,101450.47
2023-05-31T02:43:23.883Z,101451.16
2023-05-31T02:45:51.094Z,101451.38
2023-05-31T02:48:18.076Z,101446.81
2023-05-31T02:50:45.010Z,101442.88
2023-05-31T02:53:11.777Z,101444.56
2023-05-31T02:55:39.419Z,101439.66
2023-05-31T02:58:07.766Z,101436.34
2023-05-31T03:00:35.122Z,101438.53
2023-05-31T03:03:01.894Z,101440.88
2023-05-31T03:05:30.670Z,101443.47
2023-05-31T03:07:57.469Z,101434.06
2023-05-31T03:10:24.190Z,101445.91
2023-05-31T03:12:50.895Z,101448.41
2023-05-31T03:15:17.496Z,101459.16
2023-05-31T03:17:44.486Z,101454.13
2023-05-31T03:20:11.932Z,101458.22
2023-05-31T03:22:39.015Z,101458.84
2023-05-31T03:25:06.751Z,101457.44
2023-05-31T03:27:33.616Z,101453.78
2023-05-31T03:30:01.752Z,101448.94
2023-05-31T03:32:33.368Z,101452.53
2023-05-31T03:35:01.769Z,101446.47
2023-05-31T03:37:28.418Z,101442.59
2023-05-31T03:39:55.677Z,101448.25
2023-05-31T03:42:22.327Z,101443.59
2023-05-31T03:44:49.323Z,101449.03
2023-05-31T03:47:17.303Z,101441.13
2023-05-31T03:49:44.566Z,101443.66
2023-05-31T03:52:14.120Z,101439.66
2023-05-31T03:54:42.398Z,101444.22
2023-05-31T03:57:09.279Z,101444.81
2023-05-31T03:59:37.685Z,101446.22
2023-05-31T04:02:05.369Z,101445.53
2023-05-31T04:04:32.209Z,101447.13
2023-05-31T04:06:59.512Z,101446.22
2023-05-31T04:09:27.840Z,101445.91
2023-05-31T04:11:57.294Z,101444.38
2023-05-31T04:14:25.516Z,101448.50
2023-05-31T04:16:52.780Z,101453.06
2023-05-31T04:19:23.997Z,101449.78
2023-05-31T04:21:50.772Z,101465.06
2023-05-31T04:24:18.205Z,101452.78
2023-05-31T04:26:46.348Z,101450.66
2023-05-31T04:29:13.010Z,101455.16
2023-05-31T04:31:50.463Z,101449.81
2023-05-31T04:34:20.620Z,101453.91
2023-05-31T04:36:51.436Z,101455.47
2023-05-31T04:39:18.968Z,101452.63
2023-05-31T04:41:45.687Z,101456.59
2023-05-31T04:44:12.920Z,101456.25
2023-05-31T04:46:42.582Z,101462.44
2023-05-31T04:49:09.690Z,101455.44
2023-05-31T04:51:38.178Z,101458.09
2023-05-31T04:54:07.312Z,101451.91
2023-05-31T04:56:34.202Z,101459.19
2023-05-31T04:59:02.671Z,101449.44
2023-05-31T05:01:30.975Z,101456.72
2023-05-31T05:03:58.770Z,101464.25
2023-05-31T05:06:27.658Z,101463.75
2023-05-31T05:08:54.273Z,101467.84
2023-05-31T05:11:21.171Z,101460.31
2023-05-31T05:13:47.833Z,101463.53
2023-05-31T05:16:15.293Z,101454.31
2023-05-31T05:18:42.492Z,101467.47
2023-05-31T05:21:10.390Z,101461.81
2023-05-31T05:23:40.864Z,101469.00
2023-05-31T05:26:08.972Z,101461.44
2023-05-31T05:28:37.408Z,101469.16
2023-05-31T05:31:05.047Z,101468.53
2023-05-31T05:33:31.793Z,101467.91
2023-05-31T05:35:58.493Z,101471.00
2023-05-31T05:38:26.260Z,101477.03
2023-05-31T05:40:53.169Z,101463.72
2023-05-31T05:43:19.814Z,101467.84
2023-05-31T05:45:46.794Z,101471.25
2023-05-31T05:48:13.580Z,101463.69
2023-05-31T05:50:40.528Z,101463.34
2023-05-31T05:53:07.176Z,101460.28
2023-05-31T05:55:35.816Z,101456.09
2023-05-31T05:58:02.663Z,101462.94
2023-05-31T06:00:29.676Z,101457.00
2023-05-31T06:02:56.521Z,101463.91
2023-05-31T06:05:26.940Z,101458.50
2023-05-31T06:07:55.672Z,101470.31
2023-05-31T06:10:22.633Z,101477.66
2023-05-31T06:12:49.317Z,101475.53
2023-05-31T06:15:16.616Z,101464.88
2023-05-31T06:17:44.898Z,101471.59
2023-05-31T06:20:12.232Z,101468.94
2023-05-31T06:22:40.071Z,101476.53
2023-05-31T06:25:09.265Z,101481.16
2023-05-31T06:27:36.042Z,101473.31
2023-05-31T06:30:03.562Z,101470.19
2023-05-31T06:32:30.473Z,101473.00
2023-05-31T06:34:57.916Z,101481.66
2023-05-31T06:37:24.696Z,101477.25
2023-05-31T06:39:51.823Z,101476.44
2023-05-31T06:42:18.687Z,101472.31
2023-05-31T06:44:56.430Z,101465.47
2023-05-31T06:47:24.366Z,101465.56
2023-05-31T06:49:51.476Z,101472.81
2023-05-31T06:52:18.150Z,101465.13
2023-05-31T06:54:45.399Z,101469.00
2023-05-31T06:57:15.855Z,101469.59
2023-05-31T06:59:42.851Z,101472.75
2023-05-31T07:02:10.429Z,101478.44
2023-05-31T07:04:37.192Z,101475.97
2023-05-31T07:07:07.011Z,101467.16
2023-05-31T07:09:33.827Z,101479.06
2023-05-31T07:12:00.509Z,101476.31
2023-05-31T07:14:28.610Z,101465.53
2023-05-31T07:16:55.246Z,101462.75
2023-05-31T07:19:22.194Z,101463.88
2023-05-31T07:21:50.088Z,101472.22
2023-05-31T07:24:18.024Z,101472.75
2023-05-31T07:26:44.674Z,101465.84
2023-05-31T07:29:12.906Z,101468.63
2023-05-31T07:31:40.426Z,101473.34
2023-05-31T07:34:07.130Z,101473.94
2023-05-31T07:36:33.804Z,101473.94
2023-05-31T07:39:01.866Z,101478.66
2023-05-31T07:41:29.107Z,101470.63
2023-05-31T07:43:56.471Z,101475.06
2023-05-31T07:46:23.257Z,101461.22
2023-05-31T07:48:49.915Z,101468.41
2023-05-31T07:51:16.645Z,101470.09
2023-05-31T07:53:44.426Z,101475.38
2023-05-31T07:56:11.178Z,101458.47
2023-05-31T07:58:38.062Z,101454.59
2023-05-31T08:01:06.777Z,101453.75
2023-05-31T08:03:33.738Z,101464.84
2023-05-31T08:06:00.476Z,101452.94
2023-05-31T08:08:27.267Z,101462.88
2023-05-31T08:10:54.095Z,101453.44
2023-05-31T08:13:20.992Z,101462.84
2023-05-31T08:15:48.570Z,101454.25
2023-05-31T08:18:15.336Z,101444.78
2023-05-31T08:20:42.029Z,101452.78
2023-05-31T08:23:09.358Z,101456.38
2023-05-31T08:25:36.097Z,101444.97
2023-05-31T08:28:03.006Z,101457.94
2023-05-31T08:30:29.690Z,101448.44
2023-05-31T08:32:58.562Z,101443.69
2023-05-31T08:35:25.438Z,101435.28
2023-05-31T08:37:52.103Z,101436.31
2023-05-31T08:40:19.121Z,101441.22
2023-05-31T08:42:54.986Z,101436.69
2023-05-31T08:45:22.270Z,101438.19
2023-05-31T08:48:03.974Z,101428.13
2023-05-31T08:50:34.787Z,101424.03
2023-05-31T08:53:02.153Z,101426.19
2023-05-31T08:55:30.832Z,101434.34
2023-05-31T08:57:58.871Z,101424.19
2023-05-31T09:00:26.354Z,101421.38
2023-05-31T09:02:56.116Z,101425.13
2023-05-31T09:05:22.998Z,101420.50
2023-05-31T09:07:51.257Z,101424.53
2023-05-31T09:10:18.481Z,101414.03
2023-05-31T09:12:45.171Z,101420.75
2023-05-31T09:15:17.395Z,101419.44
2023-05-31T09:17:47.823Z,101409.53
2023-05-31T09:20:14.893Z,101410.44
2023-05-31T09:22:41.852Z,101404.06
2023-05-31T09:25:09.280Z,101389.88
2023-05-31T09:27:39.681Z,101392.97
2023-05-31T09:30:07.513Z,101394.66
2023-05-31T09:32:36.887Z,101400.66
2023-05-31T09:35:17.031Z,101390.31
2023-05-31T09:37:48.219Z,101394.84
2023-05-31T09:40:35.426Z,101379.88
2023-05-31T09:43:02.102Z,101375.97
2023-05-31T09:45:31.914Z,101374.78
2023-05-31T09:48:01.353Z,101376.19
2023-05-31T09:50:28.089Z,101355.81
2023-05-31T09:52:59.525Z,101365.63
2023-05-31T09:55:41.692Z,101359.53
2023-05-31T09:58:08.642Z,101360.78
2023-05-31T10:00:35.787Z,101353.97
2023-05-31T10:03:04.218Z,101339.25
2023-05-31T10:05:31.469Z,101347.97
2023-05-31T10:07:58.150Z,101344.78
2023-05-31T10:10:26.184Z,101344.41
2023-05-31T10:13:00.677Z,101341.66
2023-05-31T10:15:33.544Z,101343.03
2023-05-31T10:18:05.311Z,101347.84
2023-05-31T10:20:54.469Z,101336.00
2023-05-31T10:23:27.032Z,101332.56
2023-05-31T10:26:11.153Z,101328.84
2023-05-31T10:28:45.850Z,101325.88
2023-05-31T10:31:14.250Z,101327.59
2023-05-31T10:33:47.778Z,101333.34
2023-05-31T10:36:17.081Z,101327.25
2023-05-31T10:39:11.248Z,101325.44
2023-05-31T10:41:44.367Z,101317.38
2023-05-31T10:44:21.010Z,101314.38
2023-05-31T10:46:54.124Z,101304.16
2023-05-31T10:49:22.453Z,101303.13
2023-05-31T10:51:50.850Z,101309.19
2023-05-31T10:54:21.675Z,101306.69
2023-05-31T10:56:59.009Z,101292.78
2023-05-31T10:59:28.006Z,101288.16
2023-05-31T11:01:55.910Z,101294.31
2023-05-31T11:04:26.175Z,101290.34
2023-05-31T11:07:16.428Z,101288.41
2023-05-31T11:09:57.918Z,101285.72
2023-05-31T11:12:35.436Z,101291.56
2023-05-31T11:15:05.213Z,101282.25
2023-05-31T11:18:00.131Z,101287.16
2023-05-31T11:20:29.810Z,101293.94
2023-05-31T11:23:18.487Z,101279.34
2023-05-31T11:25:45.941Z,101276.25
2023-05-31T11:28:18.539Z,101273.31
2023-05-31T11:30:47.570Z,101279.06
2023-05-31T11:33:17.167Z,101287.53
2023-05-31T11:35:43.952Z,101279.38
2023-05-31T11:38:10.758Z,101279.19
2023-05-31T11:40:38.093Z,101273.03
2023-05-31T11:43:09.769Z,101272.34
2023-05-31T11:45:42.428Z,101264.69
2023-05-31T11:48:15.408Z,101266.66
2023-05-31T11:50:45.479Z,101259.19
2023-05-31T11:53:13.172Z,101255.66
2023-05-31T11:55:39.898Z,101256.81
2023-05-31T11:58:08.153Z,101265.53
2023-05-31T12:00:36.348Z,101251.47
2023-05-31T12:03:06.128Z,101244.91
2023-05-31T12:05:33.411Z,101241.63
2023-05-31T12:08:00.646Z,101242.72
2023-05-31T12:10:29.128Z,101236.50
2023-05-31T12:12:58.211Z,101242.47
2023-05-31T12:15:27.473Z,101230.84
2023-05-31T12:17:54.154Z,101233.00
2023-05-31T12:20:20.915Z,101221.38
2023-05-31T12:22:50.089Z,101226.38
2023-05-31T12:25:16.857Z,101224.69
2023-05-31T12:27:45.983Z,101216.31
2023-05-31T12:30:19.894Z,101218.69
2023-05-31T12:32:49.212Z,101213.41
2023-05-31T12:35:16.140Z,101206.25
2023-05-31T12:37:43.586Z,101208.25
2023-05-31T12:40:16.593Z,101197.09
2023-05-31T12:42:43.884Z,101204.38
2023-05-31T12:45:11.206Z,101195.00
2023-05-31T12:47:38.562Z,101192.63
2023-05-31T12:50:08.106Z,101197.31
2023-05-31T12:52:37.182Z,101194.50
2023-05-31T12:55:05.669Z,101192.41
2023-05-31T12:57:35.750Z,101189.34
2023-05-31T13:00:09.580Z,101193.13
2023-05-31T13:02:37.241Z,101180.19
2023-05-31T13:05:05.685Z,101179.03
2023-05-31T13:07:32.291Z,101177.38
2023-05-31T13:09:58.933Z,101175.72
2023-05-31T13:12:25.874Z,101180.19
2023-05-31T13:14:55.302Z,101180.22
2023-05-31T13:17:22.276Z,101174.09
2023-05-31T13:20:01.832Z,101175.06
2023-05-31T13:22:37.341Z,101171.88
2023-05-31T13:25:05.338Z,101163.81
2023-05-31T13:27:32.162Z,101165.88
2023-05-31T13:29:58.750Z,101174.81
2023-05-31T13:32:25.754Z,101161.78
2023-05-31T13:34:55.033Z,101158.53
2023-05-31T13:37:23.089Z,101149.03
2023-05-31T13:39:49.829Z,101157.22
2023-05-31T13:42:36.398Z,101151.84
2023-05-31T13:45:03.084Z,101149.03
2023-05-31T13:47:29.666Z,101153.00
2023-05-31T13:49:56.430Z,101147.63
2023-05-31T13:52:24.107Z,101137.53
2023-05-31T13:54:50.740Z,101130.03
2023-05-31T13:57:17.381Z,101126.53
2023-05-31T13:59:44.332Z,101129.56
2023-05-31T14:02:11.050Z,101127.94
2023-05-31T14:04:37.764Z,101122.53
2023-05-31T14:07:04.867Z,101120.88
2023-05-31T14:09:31.582Z,101120.19
2023-05-31T14:11:59.746Z,101112.47
2023-05-31T14:14:27.871Z,101105.19
2023-05-31T14:16:54.745Z,101105.78
2023-05-31T14:19:22.633Z,101105.19
2023-05-31T14:21:50.099Z,101093.00
2023-05-31T14:24:18.242Z,101097.91
2023-05-31T14:26:45.133Z,101098.03
2023-05-31T14:29:12.954Z,101104.50
2023-05-31T14:31:39.705Z,101094.66
2023-05-31T14:34:07.488Z,101089.16
2023-05-31T14:36:34.581Z,101086.66
2023-05-31T14:39:01.670Z,101092.53
2023-05-31T14:41:28.337Z,101095.81
2023-05-31T14:43:55.008Z,101084.81
2023-05-31T14:46:21.983Z,101082.91
2023-05-31T14:48:48.658Z,101082.91
2023-05-31T14:51:15.275Z,101084.56
2023-05-31T14:53:41.941Z,101073.78
2023-05-31T14:56:17.876Z,101085.47
2023-05-31T14:58:48.607Z,101078.19
2023-05-31T15:01:15.621Z,101081.75
2023-05-31T15:03:42.379Z,101077.16
2023-05-31T15:06:09.362Z,101069.09
2023-05-31T15:08:36.319Z,101067.69
2023-05-31T15:11:03.523Z,101066.63
2023-05-31T15:13:30.702Z,101073.06
2023-05-31T15:15:58.453Z,101072.13
2023-05-31T15:18:25.519Z,101063.69
2023-05-31T15:20:52.913Z,101069.31
2023-05-31T15:23:19.956Z,101066.94
2023-05-31T15:25:47.748Z,101061.44
2023-05-31T15:28:14.564Z,101061.31
2023-05-31T15:30:41.587Z,101059.81
2023-05-31T15:33:08.392Z,101058.97
2023-05-31T15:35:35.260Z,101067.91
2023-05-31T15:38:03.018Z,101054.88
2023-05-31T15:40:29.729Z,101052.22
2023-05-31T15:42:56.446Z,101054.34
2023-05-31T15:45:23.171Z,101051.03
2023-05-31T15:47:49.853Z,101049.53
2023-05-31T15:50:16.772Z,101045.09
2023-05-31T15:52:43.547Z,101044.50
2023-05-31T15:55:10.536Z,101042.16
2023-05-31T15:57:37.392Z,101039.25
2023-05-31T16:00:06.481Z,101032.56
2023-05-31T16:02:33.126Z,101033.38
2023-05-31T16:05:00.029Z,101029.03
2023-05-31T16:07:26.989Z,101027.28
2023-05-31T16:09:54.515Z,101023.44
2023-05-31T16:12:22.390Z,101015.69
2023-05-31T16:14:49.799Z,101033.28
2023-05-31T16:17:16.516Z,101015.44
2023-05-31T16:19:43.216Z,101015.69
2023-05-31T16:22:10.086Z,101013.59
2023-05-31T16:24:36.778Z,101014.16
2023-05-31T16:27:04.479Z,101020.03
2023-05-31T16:29:31.656Z,101011.47
2023-05-31T16:31:58.554Z,101016.84
2023-05-31T16:34:25.444Z,101014.97
2023-05-31T16:36:52.450Z,101019.53
2023-05-31T16:39:19.204Z,101016.84
2023-05-31T16:41:46.236Z,101023.72
2023-05-31T16:44:13.483Z,101015.38
2023-05-31T16:46:40.184Z,101022.94
2023-05-31T16:49:06.832Z,101012.03
2023-05-31T16:51:34.022Z,101015.94
2023-05-31T16:54:00.951Z,101014.50
2023-05-31T16:56:27.595Z,101015.56
2023-05-31T16:58:54.209Z,101016.41
2023-05-31T17:01:21.478Z,101017.75
2023-05-31T17:03:49.276Z,101015.66
2023-05-31T17:06:16.598Z,101012.34
2023-05-31T17:08:46.290Z,101006.00
2023-05-31T17:11:14.473Z,101011.19
2023-05-31T17:13:41.546Z,101007.59
2023-05-31T17:16:08.596Z,101003.50
2023-05-31T17:18:35.350Z,101005.03
2023-05-31T17:21:02.016Z,101007.53
2023-05-31T17:23:28.842Z,101005.59
2023-05-31T17:25:55.596Z,101007.78
2023-05-31T17:28:22.455Z,101011.97
2023-05-31T17:30:50.180Z,101016.78
2023-05-31T17:33:18.306Z,101011.69
2023-05-31T17:35:45.454Z,101018.31
2023-05-31T17:38:13.166Z,101014.88
2023-05-31T17:40:40.087Z,101007.97
2023-05-31T17:43:06.795Z,101022.13
2023-05-31T17:45:33.728Z,101018.97
2023-05-31T17:48:00.836Z,101012.69
2023-05-31T17:50:28.149Z,101016.28
2023-05-31T17:52:54.850Z,101008.41
2023-05-31T17:55:23.434Z,101020.56
2023-05-31T17:57:50.122Z,101021.19
2023-05-31T18:00:17.123Z,101007.19
2023-05-31T18:02:43.848Z,101017.22
2023-05-31T18:05:10.661Z,101012.75
2023-05-31T18:07:37.296Z,101018.13
2023-05-31T18:10:04.860Z,101011.34
2023-05-31T18:12:31.580Z,101015.13
2023-05-31T18:14:58.261Z,101027.94
2023-05-31T18:17:25.148Z,101020.34
2023-05-31T18:19:51.787Z,101023.91
2023-05-31T18:22:18.718Z,101031.78
2023-05-31T18:24:46.969Z,101028.59
2023-05-31T18:27:16.213Z,101016.59
2023-05-31T18:29:43.332Z,101022.78
2023-05-31T18:32:11.527Z,101018.50
2023-05-31T18:34:39.653Z,101024.22
2023-05-31T18:37:11.514Z,101021.03
2023-05-31T18:39:38.660Z,101023.97
2023-05-31T18:42:05.784Z,101024.91
2023-05-31T18:44:32.503Z,101023.03
2023-05-31T18:47:00.625Z,101024.84
2023-05-31T18:49:27.831Z,101019.38
2023-05-31T18:51:54.749Z,101033.13
2023-05-31T18:54:21.414Z,101029.63
2023-05-31T18:56:48.487Z,101032.34
2023-05-31T18:59:16.277Z,101032.16
2023-05-31T19:01:44.259Z,101032.28
2023-05-31T19:04:12.210Z,101039.59
2023-05-31T19:06:41.250Z,101037.56
2023-05-31T19:09:08.569Z,101032.09
2023-05-31T19:11:38.542Z,101041.19
2023-05-31T19:14:05.490Z,101046.88
2023-05-31T19:16:32.844Z,101044.00
2023-05-31T19:18:59.786Z,101039.44
2023-05-31T19:21:28.208Z,101052.84
2023-05-31T19:23:57.020Z,101044.41
2023-05-31T19:26:23.813Z,101052.03
2023-05-31T19:28:51.699Z,101050.00
2023-05-31T19:31:19.459Z,101050.69
2023-05-31T19:33:46.442Z,101047.28
2023-05-31T19:36:14.672Z,101057.38
2023-05-31T19:38:42.220Z,101056.13
2023-05-31T19:41:08.863Z,101057.34
2023-05-31T19:43:35.797Z,101050.53
2023-05-31T19:46:02.635Z,101050.88
2023-05-31T19:48:29.620Z,101053.53
2023-05-31T19:50:57.718Z,101060.53
2023-05-31T19:53:25.340Z,101060.94
2023-05-31T19:55:52.532Z,101064.63
2023-05-31T19:58:19.384Z,101069.13
2023-05-31T20:00:47.806Z,101073.66
2023-05-31T20:03:14.940Z,101077.13
2023-05-31T20:05:42.376Z,101075.53
2023-05-31T20:08:10.487Z,101073.16
2023-05-31T20:10:37.543Z,101077.06
2023-05-31T20:13:04.691Z,101075.56
2023-05-31T20:15:31.367Z,101079.97
2023-05-31T20:17:59.378Z,101089.50
2023-05-31T20:20:26.006Z,101092.06
2023-05-31T20:22:53.017Z,101088.25
2023-05-31T20:25:21.513Z,101093.88
2023-05-31T20:27:48.567Z,101094.50
2023-05-31T20:30:15.262Z,101091.31
2023-05-31T20:32:41.989Z,101098.06
2023-05-31T20:35:09.075Z,101095.41
2023-05-31T20:37:35.998Z,101094.50
2023-05-31T20:40:02.687Z,101097.91
2023-05-31T20:42:29.405Z,101093.31
2023-05-31T20:44:56.357Z,101095.66
2023-05-31T20:47:23.034Z,101090.75
2023-05-31T20:49:49.764Z,101093.94
2023-05-31T20:52:20.422Z,101091.16
2023-05-31T20:54:47.248Z,101091.78
2023-05-31T20:57:16.696Z,101089.38
2023-05-31T20:59:47.976Z,101097.63
2023-05-31T21:02:14.678Z,101092.44
2023-05-31T21:04:41.472Z,101092.69
2023-05-31T21:07:08.494Z,101092.44
2023-05-31T21:09:36.741Z,101095.81
2023-05-31T21:12:03.621Z,101095.59
2023-05-31T21:14:30.470Z,101099.19
2023-05-31T21:16:58.305Z,101102.00
2023-05-31T21:19:26.368Z,101109.00
2023-05-31T21:21:55.881Z,101095.44
2023-05-31T21:24:23.603Z,101105.97
2023-05-31T21:26:50.322Z,101096.56
2023-05-31T21:29:18.441Z,101111.63
2023-05-31T21:31:46.550Z,101105.50
2023-05-31T21:34:13.239Z,101109.41
2023-05-31T21:36:39.938Z,101114.94
2023-05-31T21:39:06.576Z,101112.47
2023-05-31T21:41:33.400Z,101121.06
2023-05-31T21:44:00.001Z,101115.00
2023-05-31T21:46:26.655Z,101120.56
2023-05-31T21:48:53.333Z,101118.09
2023-05-31T21:51:20.100Z,101117.25
2023-05-31T21:53:47.976Z,101113.91
2023-05-31T21:56:14.835Z,101114.78
2023-05-31T21:58:41.532Z,101117.56
2023-05-31T22:01:09.353Z,101107.38
2023-05-31T22:03:36.552Z,101116.78
2023-05-31T22:06:03.305Z,101112.94
2023-05-31T22:08:30.130Z,101123.19
2023-05-31T22:10:56.988Z,101115.75
2023-05-31T22:13:23.728Z,101108.56
2023-05-31T22:15:51.943Z,101112.19
2023-05-31T22:18:23.168Z,101109.94
2023-05-31T22:20:57.297Z,101111.31
2023-05-31T22:23:24.560Z,101108.56
2023-05-31T22:25:53.461Z,101103.59
2023-05-31T22:28:21.443Z,101115.22
2023-05-31T22:30:49.264Z,101119.06
2023-05-31T22:33:16.132Z,101117.41
2023-05-31T22:35:42.773Z,101115.22
2023-05-31T22:38:09.443Z,101121.56
2023-05-31T22:40:38.446Z,101114.63
2023-05-31T22:43:05.457Z,101108.00
2023-05-31T22:45:32.301Z,101111.28
2023-05-31T22:47:59.785Z,101112.97
2023-05-31T22:50:27.241Z,101106.28
2023-05-31T22:52:56.007Z,101110.72
2023-05-31T22:55:23.479Z,101122.03
2023-05-31T22:57:52.147Z,101116.75
2023-05-31T23:00:19.657Z,101115.63
2023-05-31T23:02:46.435Z,101119.47
2023-05-31T23:05:13.473Z,101115.88
2023-05-31T23:07:42.898Z,101125.50
2023-05-31T23:10:11.937Z,101118.91
2023-05-31T23:12:38.973Z,101123.84
2023-05-31T23:15:07.603Z,101123.84
2023-05-31T23:17:38.225Z,101115.50
2023-05-31T23:20:13.580Z,101119.84
2023-05-31T23:22:45.014Z,101122.59
2023-05-31T23:25:12.929Z,101116.47
2023-05-31T23:27:40.785Z,101119.72
2023-05-31T23:30:11.020Z,101117.22
2023-05-31T23:32:39.547Z,101108.66
2023-05-31T23:35:07.022Z,101109.13
2023-05-31T23:37:34.724Z,101109.72
2023-05-31T23:40:06.816Z,101115.22
2023-05-31T23:42:34.563Z,101106.91
2023-05-31T23:45:01.281Z,101119.06
2023-05-31T23:47:28.056Z,101118.38
2023-05-31T23:49:55.913Z,101120.59
2023-05-31T23:52:27.069Z,101120.78
2023-05-31T23:54:55.419Z,101124.31
2023-05-31T23:57:23.761Z,101127.69
2023-05-31T23:59:52.150Z,101131.06
